sensor_id;sensor_type;location;lat;lon;timestamp;P1;durP1;ratioP1;P2;durP2;ratioP2
35126;SDS011;21300;52.006;5.798;2023-04-24T00:00:59;2.95;;;2.60;;
35126;SDS011;21300;52.006;5.798;2023-04-24T00:03:26;5.13;;;2.92;;
35126;SDS011;21300;52.006;5.798;2023-04-24T00:05:52;4.97;;;2.83;;
35126;SDS011;21300;52.006;5.798;2023-04-24T00:08:21;3.45;;;2.90;;
35126;SDS011;21300;52.006;5.798;2023-04-24T00:10:48;3.47;;;3.17;;
35126;SDS011;21300;52.006;5.798;2023-04-24T00:13:14;5.78;;;3.88;;
35126;SDS011;21300;52.006;5.798;2023-04-24T00:15:39;3.90;;;3.10;;
35126;SDS011;21300;52.006;5.798;2023-04-24T00:18:05;3.10;;;2.80;;
35126;SDS011;21300;52.006;5.798;2023-04-24T00:20:31;2.53;;;2.28;;
35126;SDS011;21300;52.006;5.798;2023-04-24T00:23:00;3.47;;;2.60;;
35126;SDS011;21300;52.006;5.798;2023-04-24T00:25:26;2.65;;;2.38;;
35126;SDS011;21300;52.006;5.798;2023-04-24T00:27:51;5.25;;;2.92;;
35126;SDS011;21300;52.006;5.798;2023-04-24T00:30:17;2.35;;;2.00;;
35126;SDS011;21300;52.006;5.798;2023-04-24T00:32:42;3.40;;;2.00;;
35126;SDS011;21300;52.006;5.798;2023-04-24T00:35:08;2.75;;;2.10;;
35126;SDS011;21300;52.006;5.798;2023-04-24T00:37:33;4.78;;;2.38;;
35126;SDS011;21300;52.006;5.798;2023-04-24T00:39:59;2.72;;;2.03;;
35126;SDS011;21300;52.006;5.798;2023-04-24T00:42:25;2.30;;;2.00;;
35126;SDS011;21300;52.006;5.798;2023-04-24T00:44:50;3.08;;;2.20;;
35126;SDS011;21300;52.006;5.798;2023-04-24T00:47:16;2.10;;;1.75;;
35126;SDS011;21300;52.006;5.798;2023-04-24T00:49:43;2.40;;;2.03;;
35126;SDS011;21300;52.006;5.798;2023-04-24T00:52:09;4.03;;;2.20;;
35126;SDS011;21300;52.006;5.798;2023-04-24T00:54:35;2.58;;;2.38;;
35126;SDS011;21300;52.006;5.798;2023-04-24T00:57:02;5.00;;;3.03;;
35126;SDS011;21300;52.006;5.798;2023-04-24T00:59:29;5.57;;;3.28;;
35126;SDS011;21300;52.006;5.798;2023-04-24T01:01:55;5.20;;;3.67;;
35126;SDS011;21300;52.006;5.798;2023-04-24T01:04:21;5.63;;;3.30;;
35126;SDS011;21300;52.006;5.798;2023-04-24T01:06:46;4.15;;;3.70;;
35126;SDS011;21300;52.006;5.798;2023-04-24T01:09:13;4.30;;;3.88;;
35126;SDS011;21300;52.006;5.798;2023-04-24T01:11:40;4.90;;;3.90;;
35126;SDS011;21300;52.006;5.798;2023-04-24T01:14:07;4.53;;;3.50;;
35126;SDS011;21300;52.006;5.798;2023-04-24T01:16:33;4.65;;;3.80;;
35126;SDS011;21300;52.006;5.798;2023-04-24T01:18:59;6.32;;;4.30;;
35126;SDS011;21300;52.006;5.798;2023-04-24T01:21:26;4.68;;;3.30;;
35126;SDS011;21300;52.006;5.798;2023-04-24T01:23:55;2.20;;;2.00;;
35126;SDS011;21300;52.006;5.798;2023-04-24T01:26:21;2.22;;;1.88;;
35126;SDS011;21300;52.006;5.798;2023-04-24T01:28:47;2.50;;;2.10;;
35126;SDS011;21300;52.006;5.798;2023-04-24T01:31:13;3.17;;;2.10;;
35126;SDS011;21300;52.006;5.798;2023-04-24T01:33:41;2.45;;;2.25;;
35126;SDS011;21300;52.006;5.798;2023-04-24T01:36:07;3.70;;;2.25;;
35126;SDS011;21300;52.006;5.798;2023-04-24T01:38:35;3.08;;;2.55;;
35126;SDS011;21300;52.006;5.798;2023-04-24T01:41:00;2.83;;;2.53;;
35126;SDS011;21300;52.006;5.798;2023-04-24T01:43:26;4.32;;;2.70;;
35126;SDS011;21300;52.006;5.798;2023-04-24T01:45:52;4.00;;;2.50;;
35126;SDS011;21300;52.006;5.798;2023-04-24T01:48:17;3.40;;;2.67;;
35126;SDS011;21300;52.006;5.798;2023-04-24T01:50:43;3.10;;;2.15;;
35126;SDS011;21300;52.006;5.798;2023-04-24T01:53:09;3.47;;;1.80;;
35126;SDS011;21300;52.006;5.798;2023-04-24T01:55:34;2.58;;;2.05;;
35126;SDS011;21300;52.006;5.798;2023-04-24T01:58:00;2.72;;;1.95;;
35126;SDS011;21300;52.006;5.798;2023-04-24T02:00:27;4.60;;;2.38;;
35126;SDS011;21300;52.006;5.798;2023-04-24T02:02:52;2.50;;;1.63;;
35126;SDS011;21300;52.006;5.798;2023-04-24T02:05:18;2.22;;;1.70;;
35126;SDS011;21300;52.006;5.798;2023-04-24T02:07:44;2.05;;;1.73;;
35126;SDS011;21300;52.006;5.798;2023-04-24T02:10:09;3.10;;;2.13;;
35126;SDS011;21300;52.006;5.798;2023-04-24T02:12:36;3.28;;;2.53;;
35126;SDS011;21300;52.006;5.798;2023-04-24T02:15:01;3.55;;;2.08;;
35126;SDS011;21300;52.006;5.798;2023-04-24T02:17:27;3.47;;;2.50;;
35126;SDS011;21300;52.006;5.798;2023-04-24T02:19:53;3.65;;;2.70;;
35126;SDS011;21300;52.006;5.798;2023-04-24T02:22:19;4.40;;;3.40;;
35126;SDS011;21300;52.006;5.798;2023-04-24T02:24:44;4.63;;;3.75;;
35126;SDS011;21300;52.006;5.798;2023-04-24T02:27:10;5.05;;;4.13;;
35126;SDS011;21300;52.006;5.798;2023-04-24T02:29:36;5.78;;;4.15;;
35126;SDS011;21300;52.006;5.798;2023-04-24T02:32:02;5.10;;;4.60;;
35126;SDS011;21300;52.006;5.798;2023-04-24T02:34:27;6.72;;;5.05;;
35126;SDS011;21300;52.006;5.798;2023-04-24T02:36:53;8.55;;;5.22;;
35126;SDS011;21300;52.006;5.798;2023-04-24T02:39:19;6.90;;;4.72;;
35126;SDS011;21300;52.006;5.798;2023-04-24T02:41:45;6.68;;;5.63;;
35126;SDS011;21300;52.006;5.798;2023-04-24T02:44:10;7.93;;;5.70;;
35126;SDS011;21300;52.006;5.798;2023-04-24T02:46:36;7.65;;;6.07;;
35126;SDS011;21300;52.006;5.798;2023-04-24T02:49:02;9.25;;;5.20;;
35126;SDS011;21300;52.006;5.798;2023-04-24T02:51:27;10.90;;;9.20;;
35126;SDS011;21300;52.006;5.798;2023-04-24T02:53:53;9.43;;;7.90;;
35126;SDS011;21300;52.006;5.798;2023-04-24T02:56:19;10.93;;;8.48;;
35126;SDS011;21300;52.006;5.798;2023-04-24T02:58:45;14.05;;;10.45;;
35126;SDS011;21300;52.006;5.798;2023-04-24T03:01:10;12.93;;;9.73;;
35126;SDS011;21300;52.006;5.798;2023-04-24T03:03:37;13.57;;;9.77;;
35126;SDS011;21300;52.006;5.798;2023-04-24T03:06:03;11.45;;;8.80;;
35126;SDS011;21300;52.006;5.798;2023-04-24T03:08:30;11.82;;;7.97;;
35126;SDS011;21300;52.006;5.798;2023-04-24T03:10:59;7.90;;;5.90;;
35126;SDS011;21300;52.006;5.798;2023-04-24T03:13:24;7.55;;;5.45;;
35126;SDS011;21300;52.006;5.798;2023-04-24T03:15:50;6.85;;;5.13;;
35126;SDS011;21300;52.006;5.798;2023-04-24T03:18:16;8.52;;;5.47;;
35126;SDS011;21300;52.006;5.798;2023-04-24T03:20:42;5.63;;;4.53;;
35126;SDS011;21300;52.006;5.798;2023-04-24T03:23:10;7.38;;;5.82;;
35126;SDS011;21300;52.006;5.798;2023-04-24T03:25:35;7.97;;;5.22;;
35126;SDS011;21300;52.006;5.798;2023-04-24T03:28:01;8.77;;;5.70;;
35126;SDS011;21300;52.006;5.798;2023-04-24T03:30:26;9.55;;;6.07;;
35126;SDS011;21300;52.006;5.798;2023-04-24T03:32:52;12.02;;;8.75;;
35126;SDS011;21300;52.006;5.798;2023-04-24T03:35:17;13.88;;;9.85;;
35126;SDS011;21300;52.006;5.798;2023-04-24T03:37:43;14.57;;;11.45;;
35126;SDS011;21300;52.006;5.798;2023-04-24T03:40:09;15.82;;;11.15;;
35126;SDS011;21300;52.006;5.798;2023-04-24T03:42:34;15.90;;;12.57;;
35126;SDS011;21300;52.006;5.798;2023-04-24T03:45:00;16.85;;;11.68;;
35126;SDS011;21300;52.006;5.798;2023-04-24T03:47:25;16.70;;;12.93;;
35126;SDS011;21300;52.006;5.798;2023-04-24T03:49:51;17.13;;;13.45;;
35126;SDS011;21300;52.006;5.798;2023-04-24T03:52:17;18.42;;;13.05;;
35126;SDS011;21300;52.006;5.798;2023-04-24T03:54:42;21.30;;;14.65;;
35126;SDS011;21300;52.006;5.798;2023-04-24T03:57:08;20.63;;;14.38;;
35126;SDS011;21300;52.006;5.798;2023-04-24T03:59:33;20.40;;;14.95;;
35126;SDS011;21300;52.006;5.798;2023-04-24T04:01:59;21.58;;;14.75;;
35126;SDS011;21300;52.006;5.798;2023-04-24T04:04:25;23.15;;;16.23;;
35126;SDS011;21300;52.006;5.798;2023-04-24T04:06:50;26.90;;;18.52;;
35126;SDS011;21300;52.006;5.798;2023-04-24T04:09:17;22.85;;;17.00;;
35126;SDS011;21300;52.006;5.798;2023-04-24T04:11:42;23.60;;;15.90;;
35126;SDS011;21300;52.006;5.798;2023-04-24T04:14:08;27.38;;;17.58;;
35126;SDS011;21300;52.006;5.798;2023-04-24T04:16:33;22.58;;;16.23;;
35126;SDS011;21300;52.006;5.798;2023-04-24T04:19:01;28.33;;;20.13;;
35126;SDS011;21300;52.006;5.798;2023-04-24T04:21:27;33.42;;;20.70;;
35126;SDS011;21300;52.006;5.798;2023-04-24T04:23:53;26.02;;;19.45;;
35126;SDS011;21300;52.006;5.798;2023-04-24T04:26:19;22.52;;;15.32;;
35126;SDS011;21300;52.006;5.798;2023-04-24T04:28:46;27.83;;;19.60;;
35126;SDS011;21300;52.006;5.798;2023-04-24T04:31:12;25.00;;;18.10;;
35126;SDS011;21300;52.006;5.798;2023-04-24T04:33:38;26.88;;;17.83;;
35126;SDS011;21300;52.006;5.798;2023-04-24T04:36:04;26.35;;;19.13;;
35126;SDS011;21300;52.006;5.798;2023-04-24T04:38:30;25.42;;;18.92;;
35126;SDS011;21300;52.006;5.798;2023-04-24T04:40:56;25.00;;;17.63;;
35126;SDS011;21300;52.006;5.798;2023-04-24T04:43:22;24.40;;;17.45;;
35126;SDS011;21300;52.006;5.798;2023-04-24T04:45:49;27.05;;;18.90;;
35126;SDS011;21300;52.006;5.798;2023-04-24T04:48:16;26.70;;;17.95;;
35126;SDS011;21300;52.006;5.798;2023-04-24T04:50:42;23.85;;;17.33;;
35126;SDS011;21300;52.006;5.798;2023-04-24T04:53:08;23.13;;;17.40;;
35126;SDS011;21300;52.006;5.798;2023-04-24T04:55:33;24.45;;;18.55;;
35126;SDS011;21300;52.006;5.798;2023-04-24T04:57:59;23.63;;;19.02;;
35126;SDS011;21300;52.006;5.798;2023-04-24T05:00:25;26.80;;;19.60;;
35126;SDS011;21300;52.006;5.798;2023-04-24T05:02:52;21.80;;;16.73;;
35126;SDS011;21300;52.006;5.798;2023-04-24T05:05:18;19.38;;;15.60;;
35126;SDS011;21300;52.006;5.798;2023-04-24T05:07:43;22.88;;;16.33;;
35126;SDS011;21300;52.006;5.798;2023-04-24T05:10:09;22.15;;;16.40;;
35126;SDS011;21300;52.006;5.798;2023-04-24T05:12:35;20.50;;;14.98;;
35126;SDS011;21300;52.006;5.798;2023-04-24T05:15:01;20.38;;;14.95;;
35126;SDS011;21300;52.006;5.798;2023-04-24T05:17:27;18.15;;;14.10;;
35126;SDS011;21300;52.006;5.798;2023-04-24T05:19:52;17.67;;;12.80;;
35126;SDS011;21300;52.006;5.798;2023-04-24T05:22:18;18.50;;;13.40;;
35126;SDS011;21300;52.006;5.798;2023-04-24T05:24:45;17.95;;;13.23;;
35126;SDS011;21300;52.006;5.798;2023-04-24T05:27:12;16.15;;;12.00;;
35126;SDS011;21300;52.006;5.798;2023-04-24T05:29:37;14.70;;;10.45;;
35126;SDS011;21300;52.006;5.798;2023-04-24T05:32:03;14.60;;;10.00;;
35126;SDS011;21300;52.006;5.798;2023-04-24T05:34:29;13.68;;;9.93;;
35126;SDS011;21300;52.006;5.798;2023-04-24T05:36:55;11.75;;;8.60;;
35126;SDS011;21300;52.006;5.798;2023-04-24T05:39:20;14.32;;;9.52;;
35126;SDS011;21300;52.006;5.798;2023-04-24T05:41:46;10.80;;;8.75;;
35126;SDS011;21300;52.006;5.798;2023-04-24T05:44:12;11.50;;;8.32;;
35126;SDS011;21300;52.006;5.798;2023-04-24T05:46:37;12.55;;;7.60;;
35126;SDS011;21300;52.006;5.798;2023-04-24T05:49:03;9.93;;;7.32;;
35126;SDS011;21300;52.006;5.798;2023-04-24T05:51:28;10.07;;;7.72;;
35126;SDS011;21300;52.006;5.798;2023-04-24T05:53:54;9.23;;;7.15;;
35126;SDS011;21300;52.006;5.798;2023-04-24T05:56:20;8.65;;;6.15;;
35126;SDS011;21300;52.006;5.798;2023-04-24T05:58:46;8.80;;;5.97;;
35126;SDS011;21300;52.006;5.798;2023-04-24T06:01:11;8.60;;;6.53;;
35126;SDS011;21300;52.006;5.798;2023-04-24T06:03:39;7.95;;;5.82;;
35126;SDS011;21300;52.006;5.798;2023-04-24T06:06:05;9.52;;;6.25;;
35126;SDS011;21300;52.006;5.798;2023-04-24T06:08:31;6.53;;;5.35;;
35126;SDS011;21300;52.006;5.798;2023-04-24T06:10:57;5.25;;;4.30;;
35126;SDS011;21300;52.006;5.798;2023-04-24T06:13:23;6.30;;;4.55;;
35126;SDS011;21300;52.006;5.798;2023-04-24T06:15:49;6.95;;;5.07;;
35126;SDS011;21300;52.006;5.798;2023-04-24T06:18:16;7.85;;;4.95;;
35126;SDS011;21300;52.006;5.798;2023-04-24T06:20:42;4.93;;;4.13;;
35126;SDS011;21300;52.006;5.798;2023-04-24T06:23:07;5.93;;;4.57;;
35126;SDS011;21300;52.006;5.798;2023-04-24T06:25:33;5.22;;;4.28;;
35126;SDS011;21300;52.006;5.798;2023-04-24T06:27:59;6.82;;;4.50;;
35126;SDS011;21300;52.006;5.798;2023-04-24T06:30:24;5.72;;;4.10;;
35126;SDS011;21300;52.006;5.798;2023-04-24T06:32:50;5.35;;;4.22;;
35126;SDS011;21300;52.006;5.798;2023-04-24T06:35:16;6.03;;;4.22;;
35126;SDS011;21300;52.006;5.798;2023-04-24T06:37:43;6.45;;;3.95;;
35126;SDS011;21300;52.006;5.798;2023-04-24T06:40:09;9.98;;;3.90;;
35126;SDS011;21300;52.006;5.798;2023-04-24T06:42:35;9.00;;;4.90;;
35126;SDS011;21300;52.006;5.798;2023-04-24T06:45:02;14.38;;;4.60;;
35126;SDS011;21300;52.006;5.798;2023-04-24T06:47:28;6.82;;;3.95;;
35126;SDS011;21300;52.006;5.798;2023-04-24T06:49:54;6.15;;;4.10;;
35126;SDS011;21300;52.006;5.798;2023-04-24T06:52:20;5.38;;;3.88;;
35126;SDS011;21300;52.006;5.798;2023-04-24T06:54:46;4.32;;;3.40;;
35126;SDS011;21300;52.006;5.798;2023-04-24T06:57:11;4.85;;;3.33;;
35126;SDS011;21300;52.006;5.798;2023-04-24T06:59:37;3.72;;;3.10;;
35126;SDS011;21300;52.006;5.798;2023-04-24T07:02:03;4.50;;;2.97;;
35126;SDS011;21300;52.006;5.798;2023-04-24T07:04:29;4.55;;;3.03;;
35126;SDS011;21300;52.006;5.798;2023-04-24T07:06:55;4.45;;;3.00;;
35126;SDS011;21300;52.006;5.798;2023-04-24T07:12:07;3.25;;;2.78;;
35126;SDS011;21300;52.006;5.798;2023-04-24T07:14:33;4.90;;;2.10;;
35126;SDS011;21300;52.006;5.798;2023-04-24T07:16:59;2.28;;;1.45;;
35126;SDS011;21300;52.006;5.798;2023-04-24T07:19:24;0.28;;;0.28;;
35126;SDS011;21300;52.006;5.798;2023-04-24T07:21:50;0.20;;;0.20;;
35126;SDS011;21300;52.006;5.798;2023-04-24T07:24:15;0.10;;;0.10;;
35126;SDS011;21300;52.006;5.798;2023-04-24T07:26:41;0.10;;;0.10;;
35126;SDS011;21300;52.006;5.798;2023-04-24T07:29:07;0.40;;;0.40;;
35126;SDS011;21300;52.006;5.798;2023-04-24T07:31:32;0.10;;;0.10;;
35126;SDS011;21300;52.006;5.798;2023-04-24T07:33:58;0.10;;;0.10;;
35126;SDS011;21300;52.006;5.798;2023-04-24T07:36:24;0.32;;;0.32;;
35126;SDS011;21300;52.006;5.798;2023-04-24T07:38:51;0.10;;;0.10;;
35126;SDS011;21300;52.006;5.798;2023-04-24T07:41:17;0.25;;;0.25;;
35126;SDS011;21300;52.006;5.798;2023-04-24T07:43:42;0.10;;;0.10;;
35126;SDS011;21300;52.006;5.798;2023-04-24T07:46:09;0.15;;;0.15;;
35126;SDS011;21300;52.006;5.798;2023-04-24T07:48:35;0.20;;;0.20;;
35126;SDS011;21300;52.006;5.798;2023-04-24T07:51:01;0.10;;;0.10;;
35126;SDS011;21300;52.006;5.798;2023-04-24T07:53:27;0.20;;;0.20;;
35126;SDS011;21300;52.006;5.798;2023-04-24T07:55:53;0.20;;;0.20;;
35126;SDS011;21300;52.006;5.798;2023-04-24T07:58:20;1.23;;;0.93;;
35126;SDS011;21300;52.006;5.798;2023-04-24T08:00:46;0.55;;;0.55;;
35126;SDS011;21300;52.006;5.798;2023-04-24T08:03:12;0.15;;;0.15;;
35126;SDS011;21300;52.006;5.798;2023-04-24T08:05:38;0.10;;;0.10;;
35126;SDS011;21300;52.006;5.798;2023-04-24T08:08:06;0.10;;;0.10;;
35126;SDS011;21300;52.006;5.798;2023-04-24T08:10:32;0.20;;;0.20;;
35126;SDS011;21300;52.006;5.798;2023-04-24T08:12:57;0.10;;;0.10;;
35126;SDS011;21300;52.006;5.798;2023-04-24T08:15:23;0.30;;;0.30;;
35126;SDS011;21300;52.006;5.798;2023-04-24T08:17:49;0.10;;;0.10;;
35126;SDS011;21300;52.006;5.798;2023-04-24T08:20:15;0.15;;;0.13;;
35126;SDS011;21300;52.006;5.798;2023-04-24T08:22:41;0.13;;;0.13;;
35126;SDS011;21300;52.006;5.798;2023-04-24T08:25:08;0.10;;;0.10;;
35126;SDS011;21300;52.006;5.798;2023-04-24T08:27:34;0.17;;;0.17;;
35126;SDS011;21300;52.006;5.798;2023-04-24T08:30:01;1.13;;;1.00;;
35126;SDS011;21300;52.006;5.798;2023-04-24T08:32:28;0.30;;;0.30;;
35126;SDS011;21300;52.006;5.798;2023-04-24T08:34:54;0.20;;;0.20;;
35126;SDS011;21300;52.006;5.798;2023-04-24T08:37:21;0.20;;;0.20;;
35126;SDS011;21300;52.006;5.798;2023-04-24T08:39:47;0.28;;;0.28;;
35126;SDS011;21300;52.006;5.798;2023-04-24T08:42:13;0.30;;;0.30;;
35126;SDS011;21300;52.006;5.798;2023-04-24T08:44:40;0.17;;;0.17;;
35126;SDS011;21300;52.006;5.798;2023-04-24T08:47:06;0.57;;;0.25;;
35126;SDS011;21300;52.006;5.798;2023-04-24T08:49:33;0.20;;;0.20;;
35126;SDS011;21300;52.006;5.798;2023-04-24T08:52:00;0.63;;;0.63;;
35126;SDS011;21300;52.006;5.798;2023-04-24T08:54:27;0.22;;;0.22;;
35126;SDS011;21300;52.006;5.798;2023-04-24T08:56:53;0.10;;;0.10;;
35126;SDS011;21300;52.006;5.798;2023-04-24T08:59:23;0.60;;;0.60;;
35126;SDS011;21300;52.006;5.798;2023-04-24T09:01:49;0.10;;;0.10;;
35126;SDS011;21300;52.006;5.798;2023-04-24T09:04:17;0.10;;;0.10;;
35126;SDS011;21300;52.006;5.798;2023-04-24T09:06:44;0.30;;;0.30;;
35126;SDS011;21300;52.006;5.798;2023-04-24T09:09:10;0.20;;;0.20;;
35126;SDS011;21300;52.006;5.798;2023-04-24T09:11:36;0.20;;;0.20;;
35126;SDS011;21300;52.006;5.798;2023-04-24T09:14:02;0.47;;;0.47;;
35126;SDS011;21300;52.006;5.798;2023-04-24T09:16:29;0.10;;;0.10;;
35126;SDS011;21300;52.006;5.798;2023-04-24T09:18:55;0.10;;;0.10;;
35126;SDS011;21300;52.006;5.798;2023-04-24T09:21:21;0.10;;;0.10;;
35126;SDS011;21300;52.006;5.798;2023-04-24T09:23:57;0.28;;;0.28;;
35126;SDS011;21300;52.006;5.798;2023-04-24T09:26:24;0.30;;;0.30;;
35126;SDS011;21300;52.006;5.798;2023-04-24T09:28:50;0.10;;;0.10;;
35126;SDS011;21300;52.006;5.798;2023-04-24T09:31:17;0.10;;;0.10;;
35126;SDS011;21300;52.006;5.798;2023-04-24T09:33:56;0.10;;;0.10;;
35126;SDS011;21300;52.006;5.798;2023-04-24T09:36:30;0.20;;;0.20;;
35126;SDS011;21300;52.006;5.798;2023-04-24T09:39:13;0.10;;;0.10;;
35126;SDS011;21300;52.006;5.798;2023-04-24T09:42:04;0.10;;;0.10;;
35126;SDS011;21300;52.006;5.798;2023-04-24T09:44:28;0.10;;;0.10;;
35126;SDS011;21300;52.006;5.798;2023-04-24T09:46:58;0.10;;;0.10;;
35126;SDS011;21300;52.006;5.798;2023-04-24T09:52:04;0.20;;;0.20;;
35126;SDS011;21300;52.006;5.798;2023-04-24T09:54:30;0.10;;;0.10;;
35126;SDS011;21300;52.006;5.798;2023-04-24T09:56:56;0.30;;;0.30;;
35126;SDS011;21300;52.006;5.798;2023-04-24T09:59:22;0.10;;;0.10;;
35126;SDS011;21300;52.006;5.798;2023-04-24T10:01:48;0.20;;;0.20;;
35126;SDS011;21300;52.006;5.798;2023-04-24T10:04:27;0.10;;;0.10;;
35126;SDS011;21300;52.006;5.798;2023-04-24T10:06:54;0.10;;;0.10;;
35126;SDS011;21300;52.006;5.798;2023-04-24T10:09:22;0.75;;;0.75;;
35126;SDS011;21300;52.006;5.798;2023-04-24T10:11:49;0.10;;;0.10;;
35126;SDS011;21300;52.006;5.798;2023-04-24T10:14:19;0.10;;;0.10;;
35126;SDS011;21300;52.006;5.798;2023-04-24T10:16:49;0.88;;;0.40;;
35126;SDS011;21300;52.006;5.798;2023-04-24T10:19:17;0.20;;;0.20;;
35126;SDS011;21300;52.006;5.798;2023-04-24T10:21:47;0.10;;;0.10;;
35126;SDS011;21300;52.006;5.798;2023-04-24T10:24:15;0.10;;;0.10;;
35126;SDS011;21300;52.006;5.798;2023-04-24T10:26:42;0.10;;;0.10;;
35126;SDS011;21300;52.006;5.798;2023-04-24T10:29:09;0.80;;;0.68;;
35126;SDS011;21300;52.006;5.798;2023-04-24T10:31:37;0.20;;;0.20;;
35126;SDS011;21300;52.006;5.798;2023-04-24T10:34:07;0.20;;;0.20;;
35126;SDS011;21300;52.006;5.798;2023-04-24T10:36:34;0.10;;;0.10;;
35126;SDS011;21300;52.006;5.798;2023-04-24T10:39:04;0.28;;;0.28;;
35126;SDS011;21300;52.006;5.798;2023-04-24T10:41:33;0.10;;;0.10;;
35126;SDS011;21300;52.006;5.798;2023-04-24T10:44:05;1.02;;;0.95;;
35126;SDS011;21300;52.006;5.798;2023-04-24T10:46:38;0.10;;;0.10;;
35126;SDS011;21300;52.006;5.798;2023-04-24T10:49:07;0.10;;;0.10;;
35126;SDS011;21300;52.006;5.798;2023-04-24T10:51:46;0.38;;;0.38;;
35126;SDS011;21300;52.006;5.798;2023-04-24T10:54:27;0.57;;;0.30;;
35126;SDS011;21300;52.006;5.798;2023-04-24T10:59:44;0.10;;;0.10;;
35126;SDS011;21300;52.006;5.798;2023-04-24T11:02:10;0.10;;;0.10;;
35126;SDS011;21300;52.006;5.798;2023-04-24T11:04:36;0.10;;;0.10;;
35126;SDS011;21300;52.006;5.798;2023-04-24T11:07:04;0.20;;;0.20;;
35126;SDS011;21300;52.006;5.798;2023-04-24T11:09:31;0.17;;;0.17;;
35126;SDS011;21300;52.006;5.798;2023-04-24T11:12:04;0.10;;;0.10;;
35126;SDS011;21300;52.006;5.798;2023-04-24T11:15:01;0.20;;;0.20;;
35126;SDS011;21300;52.006;5.798;2023-04-24T11:17:36;0.10;;;0.10;;
35126;SDS011;21300;52.006;5.798;2023-04-24T11:20:05;0.10;;;0.10;;
35126;SDS011;21300;52.006;5.798;2023-04-24T11:22:36;0.45;;;0.45;;
35126;SDS011;21300;52.006;5.798;2023-04-24T11:25:05;0.22;;;0.22;;
35126;SDS011;21300;52.006;5.798;2023-04-24T11:27:34;0.10;;;0.10;;
35126;SDS011;21300;52.006;5.798;2023-04-24T11:30:13;0.10;;;0.10;;
35126;SDS011;21300;52.006;5.798;2023-04-24T11:32:43;0.10;;;0.10;;
35126;SDS011;21300;52.006;5.798;2023-04-24T11:35:16;0.10;;;0.10;;
35126;SDS011;21300;52.006;5.798;2023-04-24T11:37:44;0.10;;;0.10;;
35126;SDS011;21300;52.006;5.798;2023-04-24T11:40:12;0.20;;;0.20;;
35126;SDS011;21300;52.006;5.798;2023-04-24T11:42:41;0.20;;;0.20;;
35126;SDS011;21300;52.006;5.798;2023-04-24T11:45:10;0.30;;;0.30;;
35126;SDS011;21300;52.006;5.798;2023-04-24T11:47:38;0.10;;;0.10;;
35126;SDS011;21300;52.006;5.798;2023-04-24T11:50:05;5.65;;;1.23;;
35126;SDS011;21300;52.006;5.798;2023-04-24T11:52:33;4.10;;;0.98;;
35126;SDS011;21300;52.006;5.798;2023-04-24T11:55:01;2.80;;;0.85;;
35126;SDS011;21300;52.006;5.798;2023-04-24T11:57:28;3.88;;;1.05;;
35126;SDS011;21300;52.006;5.798;2023-04-24T11:59:59;7.00;;;1.17;;
35126;SDS011;21300;52.006;5.798;2023-04-24T12:02:26;5.47;;;1.02;;
35126;SDS011;21300;52.006;5.798;2023-04-24T12:04:52;4.93;;;1.10;;
35126;SDS011;21300;52.006;5.798;2023-04-24T12:07:19;2.75;;;0.73;;
35126;SDS011;21300;52.006;5.798;2023-04-24T12:09:48;4.30;;;0.93;;
35126;SDS011;21300;52.006;5.798;2023-04-24T12:12:25;4.57;;;1.10;;
35126;SDS011;21300;52.006;5.798;2023-04-24T12:14:55;3.20;;;1.10;;
35126;SDS011;21300;52.006;5.798;2023-04-24T12:20:07;3.20;;;1.10;;
35126;SDS011;21300;52.006;5.798;2023-04-24T12:22:47;4.22;;;1.00;;
35126;SDS011;21300;52.006;5.798;2023-04-24T12:25:20;3.85;;;1.00;;
35126;SDS011;21300;52.006;5.798;2023-04-24T12:27:54;3.22;;;1.20;;
35126;SDS011;21300;52.006;5.798;2023-04-24T12:33:09;3.47;;;0.90;;
35126;SDS011;21300;52.006;5.798;2023-04-24T12:38:23;4.72;;;0.98;;
35126;SDS011;21300;52.006;5.798;2023-04-24T12:41:04;11.98;;;1.45;;
35126;SDS011;21300;52.006;5.798;2023-04-24T12:43:30;1.63;;;0.80;;
35126;SDS011;21300;52.006;5.798;2023-04-24T12:45:56;7.65;;;1.13;;
35126;SDS011;21300;52.006;5.798;2023-04-24T12:48:22;3.13;;;1.17;;
35126;SDS011;21300;52.006;5.798;2023-04-24T12:50:47;3.03;;;0.80;;
35126;SDS011;21300;52.006;5.798;2023-04-24T12:53:14;3.67;;;1.00;;
35126;SDS011;21300;52.006;5.798;2023-04-24T12:55:40;5.03;;;1.20;;
35126;SDS011;21300;52.006;5.798;2023-04-24T12:58:06;2.72;;;0.90;;
35126;SDS011;21300;52.006;5.798;2023-04-24T13:00:32;3.17;;;0.93;;
35126;SDS011;21300;52.006;5.798;2023-04-24T13:02:58;4.07;;;1.10;;
35126;SDS011;21300;52.006;5.798;2023-04-24T13:05:23;4.35;;;1.20;;
35126;SDS011;21300;52.006;5.798;2023-04-24T13:07:49;5.47;;;1.17;;
35126;SDS011;21300;52.006;5.798;2023-04-24T13:10:15;6.43;;;1.27;;
35126;SDS011;21300;52.006;5.798;2023-04-24T13:12:59;5.13;;;1.02;;
35126;SDS011;21300;52.006;5.798;2023-04-24T13:15:25;5.25;;;1.10;;
35126;SDS011;21300;52.006;5.798;2023-04-24T13:17:51;3.55;;;1.10;;
35126;SDS011;21300;52.006;5.798;2023-04-24T13:20:17;3.35;;;0.93;;
35126;SDS011;21300;52.006;5.798;2023-04-24T13:22:42;4.40;;;1.40;;
35126;SDS011;21300;52.006;5.798;2023-04-24T13:25:08;4.80;;;1.38;;
35126;SDS011;21300;52.006;5.798;2023-04-24T13:27:35;4.50;;;1.30;;
35126;SDS011;21300;52.006;5.798;2023-04-24T13:30:00;8.43;;;1.58;;
35126;SDS011;21300;52.006;5.798;2023-04-24T13:32:26;9.65;;;1.70;;
35126;SDS011;21300;52.006;5.798;2023-04-24T13:34:53;6.65;;;1.45;;
35126;SDS011;21300;52.006;5.798;2023-04-24T13:37:19;10.40;;;2.38;;
35126;SDS011;21300;52.006;5.798;2023-04-24T13:39:44;9.07;;;1.98;;
35126;SDS011;21300;52.006;5.798;2023-04-24T13:42:10;5.07;;;1.08;;
35126;SDS011;21300;52.006;5.798;2023-04-24T13:44:36;11.40;;;3.70;;
35126;SDS011;21300;52.006;5.798;2023-04-24T13:47:01;9.88;;;2.35;;
35126;SDS011;21300;52.006;5.798;2023-04-24T13:49:27;13.25;;;3.88;;
35126;SDS011;21300;52.006;5.798;2023-04-24T13:51:54;9.95;;;2.67;;
35126;SDS011;21300;52.006;5.798;2023-04-24T13:54:20;8.88;;;1.85;;
35126;SDS011;21300;52.006;5.798;2023-04-24T13:56:48;4.97;;;1.50;;
35126;SDS011;21300;52.006;5.798;2023-04-24T13:59:14;6.15;;;1.77;;
35126;SDS011;21300;52.006;5.798;2023-04-24T14:01:39;5.22;;;1.58;;
35126;SDS011;21300;52.006;5.798;2023-04-24T14:04:05;8.77;;;1.80;;
35126;SDS011;21300;52.006;5.798;2023-04-24T14:06:30;11.63;;;1.83;;
35126;SDS011;21300;52.006;5.798;2023-04-24T14:08:56;10.13;;;2.05;;
35126;SDS011;21300;52.006;5.798;2023-04-24T14:11:22;15.52;;;2.58;;
35126;SDS011;21300;52.006;5.798;2023-04-24T14:13:47;10.95;;;2.40;;
35126;SDS011;21300;52.006;5.798;2023-04-24T14:16:13;12.15;;;2.08;;
35126;SDS011;21300;52.006;5.798;2023-04-24T14:18:40;8.55;;;2.53;;
35126;SDS011;21300;52.006;5.798;2023-04-24T14:21:05;11.32;;;2.88;;
35126;SDS011;21300;52.006;5.798;2023-04-24T14:23:31;11.77;;;2.60;;
35126;SDS011;21300;52.006;5.798;2023-04-24T14:25:57;15.45;;;2.50;;
35126;SDS011;21300;52.006;5.798;2023-04-24T14:28:24;8.88;;;2.47;;
35126;SDS011;21300;52.006;5.798;2023-04-24T14:30:51;10.68;;;2.40;;
35126;SDS011;21300;52.006;5.798;2023-04-24T14:33:17;9.52;;;2.85;;
35126;SDS011;21300;52.006;5.798;2023-04-24T14:35:43;8.15;;;2.15;;
35126;SDS011;21300;52.006;5.798;2023-04-24T14:38:09;9.45;;;2.25;;
35126;SDS011;21300;52.006;5.798;2023-04-24T14:40:35;10.55;;;2.30;;
35126;SDS011;21300;52.006;5.798;2023-04-24T14:43:00;8.90;;;2.22;;
35126;SDS011;21300;52.006;5.798;2023-04-24T14:45:26;9.10;;;1.83;;
35126;SDS011;21300;52.006;5.798;2023-04-24T14:47:53;11.00;;;3.15;;
35126;SDS011;21300;52.006;5.798;2023-04-24T14:50:20;6.88;;;2.20;;
35126;SDS011;21300;52.006;5.798;2023-04-24T14:52:46;7.25;;;2.20;;
35126;SDS011;21300;52.006;5.798;2023-04-24T14:55:30;11.07;;;2.00;;
35126;SDS011;21300;52.006;5.798;2023-04-24T14:57:56;9.25;;;2.60;;